Aktualne dane pomiarowe

Uwaga, wersja testowa! Automatyczne pobieranie danych za pomocą narzędzi lub skryptów to umożliwiających jest zabronione.

Dane meteo z obszaru Polski uzyskane na podstawie depesz SYNOP pobieranych co godzinę z NWS. Najedź myszką na symbol przedstawiony w tabeli, aby uzyskać informacje co do jego znaczenia. Prosimy pamiętać, że to testowa wersja strony, która jeszcze nie jest ukończona. Stworzono również jest krótki FAQ dotyczący korzystania z tej podstrony Anomalie temperatury w chwili obecnej odniesione są do okresu referencyjnego 1951-2016. Okres ten będzie później zmieniony na 1981-2010. Kliknij ikonę aby pobrać plik CSV. Kliknij ikonę aby wygenerować mapę synoptyczną dla danego terminu.

Wybierz Datę:    

        

Nowy Sącz (12660)

Dane terminowe dla wybranej stacji. Kliknij datę, aby otrzymać dane z tego terminu dla wszystkich stacji.

TemperaturaZachmurzenieWiatrCiśnienieOpadyPogoda
 Data t td wb tx tn tg rh  Nt Nl Cl Cm Ch ws wd g1 g2 wx mslp ppp ch 24h 12h t ww ww w1 w2  
2019-06-22 23:00:00 18.0 17.4 17.6--- 962.4--1wx--11019.2 984.5 0.1---wx-----
2019-06-22 22:00:00 18.1 17.5 17.7--- 963.2--1wx--11019.2 984.5 0.5---wx-----
2019-06-22 21:00:00 18.3 17.5 17.7--- 951.4--1wx--11019.1 984.5 0.1---wx-----
2019-06-22 20:00:00 18.6 17.6 17.9--- 941.9--0---01019.0 984.4 0.4---wx-----
2019-06-22 19:00:00 19.0 17.7 18.0--- 926.0--1wx--11018.5 984.0 -0.3---wx-----
2019-06-22 18:00:00 20.5 17.9 18.6 24.7 18.2- 854.0--0--801018.8 984.4 -0.1- 4.012wx-----
2019-06-22 17:00:00 24.2 15.9 18.8--- 6040.0--2wx-821017.9 984.0 -1.0---------
2019-06-22 16:00:00 24.0 15.8 18.6--- 6040.0--3wx--31018.2 984.3 -1.0---------
2019-06-22 15:00:00 23.3 17.3 19.2--- 6929.0--2wx--21018.5 984.5 -1.3---------
2019-06-22 14:00:00 22.0 18.0 19.2--- 7823.0--2wx--21019.2 985.0 -1.1---------
2019-06-22 13:00:00 21.4 20.0 20.4--- 929.0--2wx--21019.6 985.3 -0.8---wx-----
2019-06-22 12:00:00 20.3 18.8 19.2--- 914.6--1wx---1020.2 985.8 -0.2---wx-----
2019-06-22 11:00:00 21.2 18.0 18.9--- 826.0--2wx---1020.4 986.1 0.2---wx-----
2019-06-22 10:00:00 21.0 18.6 19.3--- 8610.0--2wx--21020.5 986.1 0.1---wx-----
2019-06-22 09:00:00 22.0 17.6 18.9--- 7620.0--2wx--21020.2 986.0 0.2---------
2019-06-22 08:00:00 20.8 17.4 18.4--- 8118.0--1wx--11020.3 985.9 0.3---------
2019-06-22 07:00:00 19.2 16.6 17.4--- 8517.0--1wx--11020.6 986.0 0.7---------
2019-06-22 06:00:00 18.3 16.8 17.2 21.1 15.8 15 9112.0--0---01020.5 985.8 0.7 0.7-12----- 5.9
2019-06-22 05:00:00 17.2 16.4 16.6--- 958.0--1wx--11020.4 985.6 1.1---wx-----
2019-06-22 04:00:00 16.5 15.9 16.0--- 966.0--1wx--11020.2 985.3 1.1---wx-----
2019-06-22 03:00:00 16.2 15.6 15.7--- 965.0--1wx--11020.0 985.1 1.3---wx-----
2019-06-22 02:00:00 15.9 15.3 15.4--- 965.0--1wx--11019.4 984.5 1.2---wx-----
2019-06-22 01:00:00 16.1 15.5 15.6--- 964.0--1wx--11019.1 984.2 0.9---wx-----
2019-06-22 00:00:00 16.5 15.7 15.9--- 953.3--0---01018.6 983.8 0.7--6wx-----
2019-06-21 23:00:00 17.1 16.1 16.4--- 947.0--0---01018.0 983.3 0.4---wx-----
2019-06-21 22:00:00 17.4 16.3 16.6--- 936.0--0---01018.0 983.3 0.6---wx-----
2019-06-21 21:00:00 18.2 16.5 17.0--- 9011.0--0---01017.7 983.1 0.9---wx-----
2019-06-21 20:00:00 19.6 16.4 17.4--- 8220.0--1wx--11017.3 982.9 1.5---------
2019-06-21 19:00:00 20.3 15.5 17.1--- 7423.0--1wx--11017.0 982.7 2.2---------
2019-06-21 18:00:00 21.1 16.1 17.7 27.4 18.8- 7330.0--1wx-811016.4 982.2 1.8- 0.712------
2019-06-21 17:00:00 21.8 17.6 18.9--- 7719.0--2wx---1015.5 981.4 1.1---wx-----
2019-06-21 16:00:00 22.6 14.9 17.6--- 6228.0--2wx-821014.5 980.5 0.1---wx-----
2019-06-21 15:00:00 24.4 15.1 18.4--- 5627.0--3wx---1014.2 980.4 -0.1---wx-----
2019-06-21 14:00:00 25.2 17.7 20.2--- 6321.0--2wx--21014.0 980.3 -0.6---wx-----
2019-06-21 13:00:00 27.3 16.3 20.2--- 5130.0--2wx--21013.8 980.4 -0.7---------
2019-06-21 12:00:00 26.1 15.2 19.1--- 5127.0--1wx--11014.1 980.5 -1.0- 0.66------
2019-06-21 11:00:00 24.5 17.7 19.9--- 6628.0--1wx---1014.7 980.9 -0.7---------
2019-06-21 10:00:00 24.9 17.1 19.7--- 6224.0--1wx---1014.8 981.1 -0.2---------
2019-06-21 09:00:00 22.7 19.3 20.3--- 8123.0--1wx--11015.5 981.5 0.6---------
2019-06-21 08:00:00 20.7 19.0 19.5--- 9015.0--1wx--11015.8 981.6 1.1---wx-----
2019-06-21 07:00:00 19.4 18.4 18.7--- 948.0--1wx--11015.7 981.3 0.8---wx-----
2019-06-21 06:00:00 18.9 17.9 18.2 19.3 17.3 17 949.0--0---01015.3 980.9 0.7 10.6 0.512wx---- 3.2
2019-06-21 05:00:00 18.3 17.7 17.9--- 969.0--1wx--11015.0 980.5 0.9---wx-----
2019-06-21 04:00:00 17.6 17.0 17.2--- 964.8--1wx--11015.1 980.5 1.3---wx-----
2019-06-21 03:00:00 17.8 17.2 17.4--- 9611.0--1wx--11014.7 980.2 1.5---wx-----
2019-06-21 02:00:00 17.4 16.8 17.0--- 965.0--1wx--11014.2 979.6 0.5---wx-----
2019-06-21 01:00:00 17.9 17.3 17.5--- 9612.0--1wx--11013.7 979.2 0.2---wx-----
2019-06-21 00:00:00 17.7 16.9 17.1--- 955.0--1wx--11013.2 978.7 -0.3- 0.26wx-----
1.8 ms

 

Print Friendly, PDF & Email